Time;durP1;ratioP1;P1;durP2;ratioP2;P2;SDS_P1;SDS_P2;PMS_P1;PMS_P2;Temp;Humidity;BMP_temperature;BMP_pressure;BME280_temperature;BME280_humidity;BME280_pressure;Samples;Min_cycle;Max_cycle;Signal;HPM_P1;HPM_P2
2022/05/23 00:02:23;;;;;;;2.20;1.88;;;;;;;;;;5047035;28;20905;-80
2022/05/23 00:04:50;;;;;;;3.50;2.00;;;;;;;;;;5043657;28;20226;-78
2022/05/23 00:07:22;;;;;;;3.72;2.25;;;;;;;;;;5046726;28;20685;-78
2022/05/23 00:09:49;;;;;;;2.35;2.03;;;;;;;;;;5047441;28;20207;-79
2022/05/23 00:12:16;;;;;;;3.75;2.33;;;;;;;;;;5048918;28;20799;-79
2022/05/23 00:14:45;;;;;;;3.78;2.58;;;;;;;;;;5046923;28;20191;-79
2022/05/23 00:17:13;;;;;;;2.67;2.47;;;;;;;;;;5042172;28;20199;-83
2022/05/23 00:19:40;;;;;;;3.65;2.20;;;;;;;;;;5045284;28;20191;-81
2022/05/23 00:22:08;;;;;;;3.28;2.30;;;;;;;;;;5047021;28;20667;-79
2022/05/23 00:24:35;;;;;;;2.15;1.83;;;;;;;;;;5044444;28;20624;-78
2022/05/23 00:27:02;;;;;;;3.58;2.00;;;;;;;;;;5049177;28;20195;-78
2022/05/23 00:29:29;;;;;;;2.53;1.83;;;;;;;;;;5041443;28;20617;-79
2022/05/23 00:37:28;;;;;;;3.10;1.98;;;;;;;;;;5047299;28;20225;-79
2022/05/23 00:39:55;;;;;;;2.65;2.45;;;;;;;;;;5040837;28;20234;-79
2022/05/23 00:45:13;;;;;;;4.40;2.05;;;;;;;;;;5036987;28;20312;-81
2022/05/23 00:47:42;;;;;;;2.58;2.38;;;;;;;;;;5037692;28;20567;-81
2022/05/23 00:50:10;;;;;;;4.30;2.95;;;;;;;;;;5042807;28;20203;-79
2022/05/23 00:52:41;;;;;;;3.47;2.25;;;;;;;;;;5046272;28;20205;-81
2022/05/23 00:55:10;;;;;;;2.78;1.90;;;;;;;;;;5044742;28;20207;-80
2022/05/23 00:57:40;;;;;;;2.60;2.40;;;;;;;;;;5043271;28;20210;-80
2022/05/23 01:00:10;;;;;;;2.92;2.08;;;;;;;;;;5042889;28;20198;-79
2022/05/23 01:02:38;;;;;;;2.30;2.03;;;;;;;;;;5044310;28;20650;-81
2022/05/23 01:05:07;;;;;;;3.50;1.65;;;;;;;;;;5046524;28;20211;-80
2022/05/23 01:07:34;;;;;;;3.30;1.80;;;;;;;;;;5042507;28;20199;-79
2022/05/23 01:10:01;;;;;;;2.13;1.90;;;;;;;;;;5048241;28;20195;-81
2022/05/23 01:12:29;;;;;;;2.20;1.50;;;;;;;;;;5045426;28;20207;-81
2022/05/23 01:14:57;;;;;;;2.00;1.90;;;;;;;;;;5049207;28;20202;-82
2022/05/23 01:17:25;;;;;;;3.30;1.98;;;;;;;;;;5043607;28;20199;-81
2022/05/23 01:19:52;;;;;;;2.33;1.88;;;;;;;;;;5040548;28;20199;-81
2022/05/23 01:22:26;;;;;;;3.22;2.10;;;;;;;;;;5043849;28;20195;-81
2022/05/23 01:24:57;;;;;;;3.67;2.00;;;;;;;;;;5040127;28;20223;-81
2022/05/23 01:27:26;;;;;;;2.90;2.00;;;;;;;;;;5038323;28;20555;-80
2022/05/23 01:29:53;;;;;;;2.22;2.00;;;;;;;;;;5040426;28;20195;-81
2022/05/23 01:32:21;;;;;;;3.53;2.10;;;;;;;;;;5038548;28;20208;-78
2022/05/23 01:34:48;;;;;;;5.45;2.42;;;;;;;;;;5045664;28;20615;-78
2022/05/23 01:37:16;;;;;;;5.50;2.55;;;;;;;;;;5048664;28;20234;-80
2022/05/23 01:39:43;;;;;;;2.38;1.90;;;;;;;;;;5049241;28;20261;-79
2022/05/23 01:42:10;;;;;;;3.35;2.00;;;;;;;;;;5042377;28;20223;-79
2022/05/23 01:44:38;;;;;;;2.35;2.15;;;;;;;;;;5039447;28;20215;-79
2022/05/23 01:47:10;;;;;;;2.10;1.88;;;;;;;;;;5035466;28;20212;-79
2022/05/23 01:49:37;;;;;;;2.20;1.90;;;;;;;;;;5036897;28;20195;-80
2022/05/23 01:52:04;;;;;;;5.00;2.22;;;;;;;;;;5041025;28;20210;-80
2022/05/23 01:54:31;;;;;;;3.17;2.30;;;;;;;;;;5039108;28;20260;-80
2022/05/23 01:56:58;;;;;;;4.03;1.90;;;;;;;;;;5038047;28;20661;-79
2022/05/23 02:02:11;;;;;;;3.17;1.98;;;;;;;;;;5037888;28;20332;-79
2022/05/23 02:04:39;;;;;;;3.40;2.38;;;;;;;;;;5040381;28;20646;-79
2022/05/23 02:07:06;;;;;;;2.28;2.08;;;;;;;;;;5044340;28;20199;-79
2022/05/23 02:09:33;;;;;;;3.25;2.42;;;;;;;;;;5044592;28;20210;-78
2022/05/23 02:12:00;;;;;;;2.15;1.95;;;;;;;;;;5043041;28;20241;-81
2022/05/23 02:14:27;;;;;;;4.72;1.85;;;;;;;;;;5032584;28;20209;-79
2022/05/23 02:16:55;;;;;;;2.58;2.33;;;;;;;;;;5043533;28;20194;-78
2022/05/23 02:19:23;;;;;;;2.35;1.90;;;;;;;;;;5034788;28;20207;-79
2022/05/23 02:21:50;;;;;;;3.88;1.90;;;;;;;;;;5040375;28;20202;-78
2022/05/23 02:24:18;;;;;;;3.05;1.75;;;;;;;;;;5037765;28;20214;-77
2022/05/23 02:26:45;;;;;;;3.70;2.22;;;;;;;;;;5040802;28;20299;-79
2022/05/23 02:29:14;;;;;;;2.00;1.90;;;;;;;;;;5036680;28;20202;-80
2022/05/23 02:31:41;;;;;;;2.92;2.35;;;;;;;;;;5037570;28;20208;-78
2022/05/23 02:34:10;;;;;;;2.13;1.92;;;;;;;;;;5036772;28;20260;-80
2022/05/23 02:36:38;;;;;;;2.25;2.00;;;;;;;;;;5041342;28;20539;-81
2022/05/23 02:39:05;;;;;;;2.75;2.15;;;;;;;;;;5043169;28;20222;-79
2022/05/23 02:41:33;;;;;;;2.20;1.90;;;;;;;;;;5046874;28;20563;-78
2022/05/23 02:44:00;;;;;;;1.77;1.67;;;;;;;;;;5044712;28;20199;-79
2022/05/23 02:46:28;;;;;;;2.60;2.40;;;;;;;;;;5050458;28;20223;-78
2022/05/23 02:48:55;;;;;;;2.33;2.13;;;;;;;;;;5052161;28;20626;-79
2022/05/23 02:51:22;;;;;;;1.85;1.75;;;;;;;;;;5047887;28;20686;-84
2022/05/23 02:53:51;;;;;;;4.03;2.63;;;;;;;;;;5053516;28;20202;-86
2022/05/23 02:56:18;;;;;;;2.22;1.80;;;;;;;;;;5052551;28;20199;-91
2022/05/23 02:58:45;;;;;;;3.42;1.90;;;;;;;;;;5045588;28;20202;-87
2022/05/23 03:01:13;;;;;;;2.10;1.83;;;;;;;;;;5046336;28;20199;-84
2022/05/23 03:03:39;;;;;;;2.65;2.45;;;;;;;;;;5052277;28;20282;-84
2022/05/23 03:06:07;;;;;;;2.35;2.15;;;;;;;;;;5043260;28;20286;-85
2022/05/23 03:08:35;;;;;;;4.80;2.30;;;;;;;;;;5047628;28;20282;-84
2022/05/23 03:11:05;;;;;;;2.50;2.00;;;;;;;;;;5054062;28;20195;-87
2022/05/23 03:13:32;;;;;;;3.30;1.90;;;;;;;;;;5052198;28;20217;-84
2022/05/23 03:15:59;;;;;;;2.40;2.20;;;;;;;;;;5049803;28;20196;-86
2022/05/23 03:18:28;;;;;;;3.92;2.45;;;;;;;;;;5049340;28;20198;-84
2022/05/23 03:20:57;;;;;;;4.45;2.35;;;;;;;;;;5052158;28;20206;-83
2022/05/23 03:28:54;;;;;;;2.45;2.10;;;;;;;;;;5045972;28;20199;-84
2022/05/23 03:31:21;;;;;;;4.50;2.60;;;;;;;;;;5054473;28;20191;-84
2022/05/23 03:33:48;;;;;;;2.60;2.08;;;;;;;;;;5051798;28;20194;-87
2022/05/23 03:36:15;;;;;;;2.40;2.08;;;;;;;;;;5039331;28;20666;-86
2022/05/23 03:38:42;;;;;;;6.30;2.50;;;;;;;;;;5044613;28;20195;-89
2022/05/23 03:41:11;;;;;;;2.40;2.20;;;;;;;;;;5054409;28;20201;-86
2022/05/23 03:43:39;;;;;;;2.40;2.20;;;;;;;;;;5052310;28;20219;-87
2022/05/23 03:46:07;;;;;;;5.03;2.35;;;;;;;;;;5047963;28;20242;-83
2022/05/23 03:48:34;;;;;;;2.40;2.10;;;;;;;;;;5050991;28;20678;-91
2022/05/23 03:51:01;;;;;;;2.60;2.38;;;;;;;;;;5048987;28;20195;-90
2022/05/23 03:53:28;;;;;;;2.70;2.20;;;;;;;;;;5054489;28;20286;-89
2022/05/23 03:55:56;;;;;;;4.32;2.28;;;;;;;;;;5050344;28;20195;-87
2022/05/23 03:58:24;;;;;;;2.35;2.08;;;;;;;;;;5037139;28;20214;-91
2022/05/23 04:00:51;;;;;;;2.97;2.05;;;;;;;;;;5048802;28;20192;-91
2022/05/23 04:03:20;;;;;;;2.25;2.00;;;;;;;;;;5047718;28;20295;-84
2022/05/23 04:05:48;;;;;;;6.13;2.58;;;;;;;;;;5046028;28;20219;-84
2022/05/23 04:08:15;;;;;;;2.90;2.47;;;;;;;;;;5047331;28;20235;-84
2022/05/23 04:10:42;;;;;;;5.80;2.90;;;;;;;;;;5042268;28;20196;-84
2022/05/23 04:13:09;;;;;;;2.60;2.40;;;;;;;;;;5047755;28;20213;-83
2022/05/23 04:15:40;;;;;;;2.50;2.30;;;;;;;;;;5039521;28;20202;-83
2022/05/23 04:18:07;;;;;;;2.63;1.90;;;;;;;;;;5051675;28;20219;-83
2022/05/23 04:20:34;;;;;;;7.90;2.58;;;;;;;;;;5048592;28;20202;-82
2022/05/23 04:23:01;;;;;;;4.95;2.55;;;;;;;;;;5047036;28;20199;-82
2022/05/23 04:25:29;;;;;;;6.45;2.50;;;;;;;;;;5046779;28;20215;-82
2022/05/23 04:27:56;;;;;;;2.90;2.08;;;;;;;;;;5038849;28;20200;-83
2022/05/23 04:30:23;;;;;;;2.75;2.10;;;;;;;;;;5046568;28;20195;-82
2022/05/23 04:35:36;;;;;;;3.15;2.30;;;;;;;;;;5042491;28;20291;-83
2022/05/23 04:38:03;;;;;;;3.15;2.17;;;;;;;;;;5050570;28;20199;-83
2022/05/23 04:40:30;;;;;;;2.63;2.42;;;;;;;;;;5041364;28;20200;-84
2022/05/23 04:42:57;;;;;;;3.03;2.00;;;;;;;;;;5043203;28;20222;-84
2022/05/23 04:45:24;;;;;;;2.17;2.00;;;;;;;;;;5048913;28;20237;-85
2022/05/23 04:50:38;;;;;;;3.03;2.50;;;;;;;;;;5041244;28;21035;-83
2022/05/23 04:53:05;;;;;;;4.43;2.55;;;;;;;;;;5051528;28;20210;-83
2022/05/23 04:55:33;;;;;;;3.90;2.10;;;;;;;;;;5044579;28;20219;-83
2022/05/23 04:58:00;;;;;;;2.08;1.98;;;;;;;;;;5049895;28;20218;-83
2022/05/23 05:00:29;;;;;;;2.80;2.33;;;;;;;;;;5043443;28;20202;-83
2022/05/23 05:02:59;;;;;;;2.75;2.40;;;;;;;;;;5050812;28;20210;-83
2022/05/23 05:05:27;;;;;;;3.53;2.78;;;;;;;;;;5043827;28;20222;-84
2022/05/23 05:07:54;;;;;;;2.88;2.17;;;;;;;;;;5047297;28;20214;-84
2022/05/23 05:10:23;;;;;;;4.00;2.70;;;;;;;;;;5044685;28;20198;-82
2022/05/23 05:12:50;;;;;;;2.58;2.38;;;;;;;;;;5049188;28;20198;-84
2022/05/23 05:15:17;;;;;;;6.53;2.83;;;;;;;;;;5046892;28;20192;-82
2022/05/23 05:17:45;;;;;;;3.05;2.75;;;;;;;;;;5048288;28;20195;-82
2022/05/23 05:20:15;;;;;;;3.33;2.17;;;;;;;;;;5046701;28;20716;-84
2022/05/23 05:22:42;;;;;;;3.58;2.40;;;;;;;;;;5041503;28;20681;-85
2022/05/23 05:25:10;;;;;;;3.45;2.63;;;;;;;;;;5045388;28;20203;-82
2022/05/23 05:27:37;;;;;;;4.10;2.63;;;;;;;;;;5045020;28;20297;-83
2022/05/23 05:30:05;;;;;;;2.13;2.00;;;;;;;;;;5043492;28;20567;-82
2022/05/23 05:32:37;;;;;;;3.65;2.42;;;;;;;;;;5048784;28;20540;-82
2022/05/23 05:35:05;;;;;;;3.13;2.55;;;;;;;;;;5047163;28;20669;-85
2022/05/23 05:37:35;;;;;;;3.40;2.45;;;;;;;;;;5047340;28;20665;-84
2022/05/23 05:40:03;;;;;;;2.33;2.13;;;;;;;;;;5046035;28;20650;-85
2022/05/23 05:42:33;;;;;;;2.45;2.10;;;;;;;;;;5046477;28;20265;-83
2022/05/23 05:45:01;;;;;;;6.72;2.30;;;;;;;;;;5042328;28;20382;-83
2022/05/23 05:47:30;;;;;;;4.18;2.40;;;;;;;;;;5043647;28;20231;-83
2022/05/23 05:50:00;;;;;;;2.13;1.92;;;;;;;;;;5039911;28;20208;-84
2022/05/23 05:52:28;;;;;;;3.38;2.50;;;;;;;;;;5043369;28;20192;-83
2022/05/23 05:54:57;;;;;;;3.28;2.30;;;;;;;;;;5043453;28;20641;-83
2022/05/23 05:57:24;;;;;;;2.25;2.05;;;;;;;;;;5036493;28;20222;-83
2022/05/23 05:59:52;;;;;;;2.85;2.65;;;;;;;;;;5040552;28;20206;-82
2022/05/23 06:02:19;;;;;;;2.67;2.22;;;;;;;;;;5044544;28;20195;-83
2022/05/23 06:04:46;;;;;;;2.67;2.42;;;;;;;;;;5046090;28;20198;-85
2022/05/23 06:12:49;;;;;;;3.30;2.90;;;;;;;;;;5043555;28;20321;-82
2022/05/23 06:15:16;;;;;;;3.22;2.55;;;;;;;;;;5046338;28;20206;-80
2022/05/23 06:17:44;;;;;;;2.85;2.50;;;;;;;;;;5040871;28;20646;-81
2022/05/23 06:20:11;;;;;;;5.82;2.30;;;;;;;;;;5039944;28;20290;-81
2022/05/23 06:22:38;;;;;;;3.42;2.30;;;;;;;;;;5043650;28;20218;-83
2022/05/23 06:25:08;;;;;;;3.60;2.08;;;;;;;;;;5043921;28;20203;-82
2022/05/23 06:27:35;;;;;;;2.22;2.03;;;;;;;;;;5047599;28;20218;-82
2022/05/23 06:30:05;;;;;;;2.53;1.90;;;;;;;;;;5037731;28;20206;-82
2022/05/23 06:32:32;;;;;;;2.03;1.83;;;;;;;;;;5041030;28;20693;-81
2022/05/23 06:34:59;;;;;;;3.70;2.20;;;;;;;;;;5039925;28;20202;-83
2022/05/23 06:37:26;;;;;;;4.15;1.88;;;;;;;;;;5048398;28;20646;-79
2022/05/23 06:39:53;;;;;;;2.20;1.90;;;;;;;;;;5048012;28;20736;-82
2022/05/23 06:42:21;;;;;;;2.40;2.13;;;;;;;;;;5042523;28;20700;-82
2022/05/23 06:44:48;;;;;;;1.70;1.60;;;;;;;;;;5045240;28;20206;-87
2022/05/23 06:47:15;;;;;;;2.35;2.00;;;;;;;;;;5047981;28;20226;-80
2022/05/23 06:49:42;;;;;;;2.83;2.10;;;;;;;;;;5045542;28;20195;-82
2022/05/23 06:52:09;;;;;;;4.53;1.60;;;;;;;;;;5046136;28;20206;-83
2022/05/23 06:54:37;;;;;;;3.33;2.05;;;;;;;;;;5043185;28;20199;-82
2022/05/23 06:57:04;;;;;;;1.90;1.80;;;;;;;;;;5032905;28;20253;-82
2022/05/23 06:59:32;;;;;;;3.53;1.80;;;;;;;;;;5044120;28;20195;-81
2022/05/23 07:02:01;;;;;;;2.10;1.80;;;;;;;;;;5044376;28;20202;-80
2022/05/23 07:12:19;;;;;;;2.47;2.03;;;;;;;;;;5045286;28;20222;-80
2022/05/23 07:12:45;;;;;;;1.52;1.40;;;;;;;;;;5038528;28;20207;-83
2022/05/23 07:15:14;;;;;;;2.10;1.87;;;;;;;;;;5037105;28;20245;-83
2022/05/23 07:17:41;;;;;;;3.13;1.90;;;;;;;;;;5047405;28;20437;-86
2022/05/23 07:20:08;;;;;;;2.27;1.60;;;;;;;;;;5040525;28;20493;-84
2022/05/23 07:22:35;;;;;;;3.20;2.00;;;;;;;;;;5041844;28;20539;-87
2022/05/23 07:25:02;;;;;;;5.73;1.67;;;;;;;;;;5036608;28;20972;-88
2022/05/23 07:27:30;;;;;;;3.00;1.90;;;;;;;;;;5046025;28;20493;-87
2022/05/23 07:29:57;;;;;;;3.80;1.92;;;;;;;;;;5043930;28;20461;-87
2022/05/23 07:32:25;;;;;;;2.30;2.10;;;;;;;;;;5039760;28;20262;-89
2022/05/23 07:34:52;;;;;;;4.37;2.67;;;;;;;;;;5049815;28;20465;-91
2022/05/23 07:37:20;;;;;;;2.70;2.00;;;;;;;;;;5046486;28;20457;-89
2022/05/23 07:39:47;;;;;;;2.70;1.80;;;;;;;;;;5041051;28;20438;-89
2022/05/23 07:42:14;;;;;;;2.03;1.70;;;;;;;;;;5045359;28;20527;-85
2022/05/23 07:44:41;;;;;;;3.45;1.85;;;;;;;;;;5042933;28;20458;-87
2022/05/23 07:47:08;;;;;;;2.40;2.10;;;;;;;;;;5047322;28;20289;-86
2022/05/23 07:49:37;;;;;;;2.45;2.25;;;;;;;;;;5050461;28;20206;-88
2022/05/23 07:52:04;;;;;;;2.37;1.80;;;;;;;;;;5053503;28;20195;-90
2022/05/23 08:02:47;;;;;;;4.60;1.95;;;;;;;;;;5050622;28;20201;-87
2022/05/23 08:05:15;;;;;;;2.10;1.90;;;;;;;;;;5046072;28;20191;-87
2022/05/23 08:07:42;;;;;;;2.40;1.95;;;;;;;;;;5051984;28;20474;-88
2022/05/23 08:10:10;;;;;;;2.63;1.70;;;;;;;;;;5046649;28;20203;-92
2022/05/23 08:12:37;;;;;;;2.13;1.73;;;;;;;;;;5050442;28;20474;-86
2022/05/23 08:15:05;;;;;;;3.20;2.80;;;;;;;;;;5047349;28;20464;-89
2022/05/23 08:17:32;;;;;;;1.63;1.53;;;;;;;;;;5052602;28;20488;-94
2022/05/23 08:19:59;;;;;;;2.37;1.57;;;;;;;;;;5054233;28;20457;-89
2022/05/23 08:22:28;;;;;;;2.67;1.77;;;;;;;;;;5050046;28;20463;-91
2022/05/23 08:24:55;;;;;;;1.93;1.70;;;;;;;;;;5044793;28;21245;-86
2022/05/23 08:27:22;;;;;;;1.80;1.70;;;;;;;;;;5053646;28;21008;-89
2022/05/23 08:29:49;;;;;;;2.73;2.10;;;;;;;;;;5051440;28;20460;-88
2022/05/23 08:32:17;;;;;;;5.30;2.60;;;;;;;;;;5050556;28;20462;-90
2022/05/23 08:34:44;;;;;;;3.63;1.97;;;;;;;;;;5052208;28;20578;-90
2022/05/23 08:37:11;;;;;;;2.30;1.90;;;;;;;;;;5050599;28;20458;-81
2022/05/23 08:39:39;;;;;;;1.93;1.43;;;;;;;;;;5051144;28;20462;-87
2022/05/23 08:42:10;;;;;;;2.30;1.83;;;;;;;;;;5048541;28;20491;-87
2022/05/23 08:44:43;;;;;;;2.13;1.93;;;;;;;;;;5047191;28;20458;-92
2022/05/23 08:47:16;;;;;;;2.67;2.13;;;;;;;;;;5045133;28;20474;-89
2022/05/23 08:49:46;;;;;;;2.90;1.53;;;;;;;;;;5044314;28;20469;-88
2022/05/23 08:52:16;;;;;;;2.23;1.60;;;;;;;;;;5038164;28;20447;-82
2022/05/23 08:54:48;;;;;;;2.17;1.97;;;;;;;;;;5051352;28;20467;-89
2022/05/23 08:57:20;;;;;;;3.50;2.10;;;;;;;;;;5048494;28;20508;-89
2022/05/23 08:59:50;;;;;;;4.40;2.67;;;;;;;;;;5042970;28;20535;-89
2022/05/23 09:02:20;;;;;;;3.80;1.90;;;;;;;;;;5043474;28;20817;-89
2022/05/23 09:04:49;;;;;;;2.17;1.97;;;;;;;;;;5053469;28;20471;-89
2022/05/23 09:07:22;;;;;;;3.07;2.00;;;;;;;;;;5052861;28;20484;-85
2022/05/23 09:09:52;;;;;;;2.23;1.60;;;;;;;;;;5049827;28;20821;-87
2022/05/23 09:12:19;;;;;;;2.50;2.07;;;;;;;;;;5050880;28;20460;-87
2022/05/23 09:14:46;;;;;;;3.03;1.50;;;;;;;;;;5049954;28;20467;-86
2022/05/23 09:17:18;;;;;;;2.23;2.00;;;;;;;;;;5052099;28;20451;-85
2022/05/23 09:19:49;;;;;;;2.60;1.50;;;;;;;;;;5033383;28;20460;-88
2022/05/23 09:22:18;;;;;;;3.93;2.10;;;;;;;;;;5045381;28;20469;-86
2022/05/23 09:24:47;;;;;;;2.47;1.70;;;;;;;;;;5041819;28;20464;-84
2022/05/23 09:27:18;;;;;;;2.03;1.77;;;;;;;;;;5040253;28;20475;-86
2022/05/23 09:29:47;;;;;;;1.90;1.80;;;;;;;;;;5054360;28;20562;-89
2022/05/23 09:32:18;;;;;;;4.47;2.40;;;;;;;;;;5039905;28;20469;-86
2022/05/23 09:34:46;;;;;;;2.83;2.00;;;;;;;;;;5049828;28;20464;-89
2022/05/23 09:37:18;;;;;;;4.40;2.10;;;;;;;;;;5045234;28;20488;-85
2022/05/23 09:39:51;;;;;;;2.27;1.60;;;;;;;;;;5049217;28;20930;-92
2022/05/23 09:48:03;;;;;;;1.70;1.43;;;;;;;;;;5042329;28;20495;-90
2022/05/23 09:50:33;;;;;;;2.00;1.80;;;;;;;;;;5052034;28;20457;-86
2022/05/23 09:53:01;;;;;;;5.00;1.97;;;;;;;;;;5049558;28;20655;-90
2022/05/23 09:55:30;;;;;;;3.97;1.87;;;;;;;;;;5049971;28;20457;-88
2022/05/23 09:57:59;;;;;;;2.03;1.33;;;;;;;;;;5052784;28;20454;-87
2022/05/23 10:00:33;;;;;;;2.53;1.80;;;;;;;;;;5048401;28;20508;-85
2022/05/23 10:03:05;;;;;;;3.00;1.63;;;;;;;;;;5043732;28;20457;-85
2022/05/23 10:05:33;;;;;;;2.33;1.47;;;;;;;;;;5045641;28;20456;-88
2022/05/23 10:08:01;;;;;;;3.43;1.73;;;;;;;;;;5043096;28;20871;-86
2022/05/23 10:10:30;;;;;;;2.27;1.80;;;;;;;;;;5044022;28;20469;-84
2022/05/23 10:15:55;;;;;;;5.27;1.47;;;;;;;;;;5067730;28;20542;-87
2022/05/23 10:18:26;;;;;;;3.20;2.07;;;;;;;;;;5061663;28;20563;-89
2022/05/23 10:20:54;;;;;;;2.30;1.47;;;;;;;;;;5067971;28;20466;-87
2022/05/23 10:23:22;;;;;;;1.80;1.50;;;;;;;;;;5065248;28;20958;-88
2022/05/23 10:25:54;;;;;;;3.30;1.50;;;;;;;;;;5079920;28;20466;-88
2022/05/23 10:28:23;;;;;;;2.90;2.00;;;;;;;;;;5068362;28;20849;-85
2022/05/23 10:30:57;;;;;;;3.00;1.60;;;;;;;;;;5063866;28;20459;-87
2022/05/23 10:33:27;;;;;;;4.80;1.63;;;;;;;;;;5058572;28;20559;-87
2022/05/23 10:35:59;;;;;;;1.77;1.30;;;;;;;;;;5073614;28;20461;-86
2022/05/23 10:44:05;;;;;;;5.93;1.57;;;;;;;;;;5066467;28;20475;-86
2022/05/23 10:46:35;;;;;;;3.70;2.00;;;;;;;;;;5065980;28;20494;-85
2022/05/23 10:49:08;;;;;;;2.00;1.50;;;;;;;;;;5061402;28;20571;-87
2022/05/23 10:51:40;;;;;;;2.40;2.03;;;;;;;;;;5057330;28;20458;-88
2022/05/23 10:54:18;;;;;;;2.60;1.77;;;;;;;;;;5064736;28;20481;-86
2022/05/23 10:56:57;;;;;;;2.37;1.30;;;;;;;;;;5062382;28;20566;-84
2022/05/23 10:59:36;;;;;;;2.77;1.60;;;;;;;;;;5060884;28;20456;-84
2022/05/23 11:02:10;;;;;;;1.60;1.50;;;;;;;;;;5071980;28;20444;-83
2022/05/23 11:04:44;;;;;;;1.83;1.73;;;;;;;;;;5061716;28;21053;-85
2022/05/23 11:07:23;;;;;;;1.97;1.87;;;;;;;;;;5065834;28;20444;-85
2022/05/23 11:09:53;;;;;;;3.37;2.23;;;;;;;;;;5063252;28;20464;-89
2022/05/23 11:12:25;;;;;;;2.27;2.00;;;;;;;;;;5074921;28;20886;-86
2022/05/23 11:15:02;;;;;;;2.37;2.17;;;;;;;;;;5056300;28;20483;-86
2022/05/23 11:17:33;;;;;;;2.23;1.50;;;;;;;;;;5064549;28;20989;-89
2022/05/23 11:20:06;;;;;;;2.10;1.63;;;;;;;;;;5064318;28;20460;-87
2022/05/23 11:22:35;;;;;;;2.93;1.90;;;;;;;;;;5061491;28;20960;-84
2022/05/23 11:25:07;;;;;;;2.53;2.30;;;;;;;;;;5061679;28;20545;-88
2022/05/23 11:35:54;;;;;;;3.00;1.70;;;;;;;;;;5049625;28;20480;-86
2022/05/23 11:38:21;;;;;;;3.80;2.53;;;;;;;;;;5046806;28;21078;-87
2022/05/23 11:41:06;;;;;;;1.67;1.50;;;;;;;;;;5044829;28;20532;-84
2022/05/23 11:43:34;;;;;;;2.47;1.60;;;;;;;;;;5039331;28;20466;-84
2022/05/23 11:46:02;;;;;;;2.67;2.10;;;;;;;;;;5053960;28;20464;-87
2022/05/23 11:48:35;;;;;;;1.53;1.43;;;;;;;;;;5044108;28;20446;-87
2022/05/23 11:51:10;;;;;;;1.83;1.73;;;;;;;;;;5042450;28;20445;-85
2022/05/23 11:53:39;;;;;;;6.67;1.50;;;;;;;;;;5049505;28;20459;-87
2022/05/23 11:56:09;;;;;;;4.70;1.60;;;;;;;;;;5050843;28;20485;-87
2022/05/23 11:58:40;;;;;;;3.50;2.07;;;;;;;;;;5044980;28;20461;-86
2022/05/23 12:01:18;;;;;;;2.23;1.53;;;;;;;;;;5048541;28;20541;-88
2022/05/23 12:04:09;;;;;;;3.10;1.70;;;;;;;;;;5043788;28;20464;-84
2022/05/23 12:06:38;;;;;;;3.20;2.57;;;;;;;;;;5043600;28;20441;-89
2022/05/23 12:09:07;;;;;;;3.20;1.53;;;;;;;;;;5051166;28;20437;-88
2022/05/23 12:11:35;;;;;;;2.60;1.60;;;;;;;;;;5047917;28;20507;-87
2022/05/23 12:14:15;;;;;;;3.57;1.40;;;;;;;;;;5049885;28;20464;-84
2022/05/23 12:16:43;;;;;;;3.00;1.43;;;;;;;;;;5044360;28;20464;-87
2022/05/23 12:19:17;;;;;;;3.10;1.53;;;;;;;;;;5046788;28;20468;-90
2022/05/23 12:21:47;;;;;;;3.20;1.77;;;;;;;;;;5052479;28;21145;-88
2022/05/23 12:24:20;;;;;;;1.53;1.27;;;;;;;;;;5053040;28;20460;-88
2022/05/23 12:26:50;;;;;;;2.00;1.33;;;;;;;;;;5046401;28;20954;-89
2022/05/23 12:29:28;;;;;;;1.90;1.63;;;;;;;;;;5052696;28;20468;-84
2022/05/23 12:32:10;;;;;;;2.53;1.70;;;;;;;;;;5053023;28;20492;-88
2022/05/23 12:34:42;;;;;;;3.07;1.80;;;;;;;;;;5049494;28;20996;-88
2022/05/23 12:37:15;;;;;;;3.20;1.70;;;;;;;;;;5051140;28;21003;-87
2022/05/23 12:39:57;;;;;;;1.40;1.30;;;;;;;;;;5050207;28;23039;-89
2022/05/23 12:42:30;;;;;;;2.37;1.37;;;;;;;;;;5040730;28;20486;-89
2022/05/23 12:45:12;;;;;;;2.00;1.80;;;;;;;;;;5045065;28;21118;-89
2022/05/23 12:47:58;;;;;;;3.10;1.60;;;;;;;;;;5048294;28;20476;-88
2022/05/23 12:50:31;;;;;;;4.63;1.63;;;;;;;;;;5045643;28;20476;-88
2022/05/23 12:53:06;;;;;;;4.20;1.63;;;;;;;;;;5049064;28;20452;-88
2022/05/23 12:55:38;;;;;;;1.83;1.40;;;;;;;;;;5053893;28;20491;-86
2022/05/23 12:58:25;;;;;;;2.60;1.40;;;;;;;;;;5046386;28;21017;-89
2022/05/23 13:00:55;;;;;;;2.63;1.50;;;;;;;;;;5053157;28;20837;-83
2022/05/23 13:03:26;;;;;;;2.43;1.60;;;;;;;;;;5049811;28;21030;-89
2022/05/23 13:05:56;;;;;;;1.50;1.30;;;;;;;;;;5043841;28;20450;-88
2022/05/23 13:08:27;;;;;;;2.23;1.60;;;;;;;;;;5053296;28;20469;-88
2022/05/23 13:10:57;;;;;;;2.80;1.60;;;;;;;;;;5058793;28;20467;-90
2022/05/23 13:13:28;;;;;;;2.00;1.40;;;;;;;;;;5042832;28;20454;-87
2022/05/23 13:15:55;;;;;;;1.97;1.20;;;;;;;;;;5049716;28;20480;-87
2022/05/23 13:23:53;;;;;;;2.20;1.67;;;;;;;;;;5053998;28;20828;-89
2022/05/23 13:26:20;;;;;;;3.10;2.00;;;;;;;;;;5055060;28;20544;-89
2022/05/23 13:28:50;;;;;;;2.10;1.43;;;;;;;;;;5044351;28;20826;-85
2022/05/23 13:31:25;;;;;;;2.33;1.67;;;;;;;;;;5052989;28;20476;-85
2022/05/23 13:33:52;;;;;;;5.80;1.80;;;;;;;;;;5046977;28;20477;-89
2022/05/23 13:36:20;;;;;;;4.33;1.70;;;;;;;;;;5048562;28;20480;-85
2022/05/23 13:39:01;;;;;;;2.10;1.90;;;;;;;;;;5053330;28;20820;-84
2022/05/23 13:41:29;;;;;;;2.10;1.43;;;;;;;;;;5051357;28;20473;-88
2022/05/23 13:43:56;;;;;;;2.70;2.43;;;;;;;;;;5048166;28;20959;-88
2022/05/23 13:46:26;;;;;;;2.90;1.70;;;;;;;;;;5045976;28;20967;-88
2022/05/23 13:48:54;;;;;;;2.53;2.33;;;;;;;;;;5052593;28;20462;-88
2022/05/23 13:51:22;;;;;;;1.70;1.47;;;;;;;;;;5044482;28;20627;-87
2022/05/23 13:53:51;;;;;;;2.40;1.43;;;;;;;;;;5042602;28;20455;-88
2022/05/23 13:56:20;;;;;;;3.20;1.93;;;;;;;;;;5031552;28;21075;-86
2022/05/23 13:58:49;;;;;;;10.00;2.40;;;;;;;;;;5045090;28;21015;-89
2022/05/23 14:01:19;;;;;;;1.90;1.70;;;;;;;;;;5047379;28;20457;-85
2022/05/23 14:03:48;;;;;;;1.73;1.50;;;;;;;;;;5042861;28;20454;-87
2022/05/23 14:06:17;;;;;;;1.43;1.33;;;;;;;;;;5040281;28;20462;-87
2022/05/23 14:08:46;;;;;;;2.97;1.90;;;;;;;;;;5046635;28;20461;-85
2022/05/23 14:11:22;;;;;;;4.03;2.20;;;;;;;;;;5040688;28;20450;-87
2022/05/23 14:13:49;;;;;;;1.93;1.40;;;;;;;;;;5042987;28;20878;-87
2022/05/23 14:16:18;;;;;;;4.23;1.80;;;;;;;;;;5037365;28;21023;-86
2022/05/23 14:18:45;;;;;;;1.83;1.47;;;;;;;;;;5038441;28;20469;-87
2022/05/23 14:21:27;;;;;;;2.70;1.80;;;;;;;;;;5040437;28;20966;-88
2022/05/23 14:23:54;;;;;;;1.77;1.40;;;;;;;;;;5044574;28;20465;-86
2022/05/23 14:26:23;;;;;;;1.60;1.50;;;;;;;;;;5038682;28;20449;-88
2022/05/23 14:28:52;;;;;;;1.73;1.53;;;;;;;;;;5042802;28;20461;-87
2022/05/23 14:31:32;;;;;;;2.27;1.83;;;;;;;;;;5044348;28;20465;-87
2022/05/23 14:34:00;;;;;;;2.17;1.70;;;;;;;;;;5043201;28;20872;-88
2022/05/23 14:36:27;;;;;;;2.53;2.00;;;;;;;;;;5035212;28;20486;-87
2022/05/23 14:38:56;;;;;;;2.27;1.73;;;;;;;;;;5034252;28;20461;-82
2022/05/23 14:41:27;;;;;;;2.00;1.80;;;;;;;;;;5033505;28;20486;-86
2022/05/23 14:44:01;;;;;;;2.17;1.67;;;;;;;;;;5032850;28;20470;-89
2022/05/23 14:46:29;;;;;;;1.70;1.60;;;;;;;;;;5033919;28;20454;-87
2022/05/23 14:48:57;;;;;;;2.23;1.70;;;;;;;;;;5034700;28;20458;-86
2022/05/23 14:51:29;;;;;;;3.83;2.03;;;;;;;;;;5046791;28;21071;-85
2022/05/23 14:56:51;;;;;;;6.60;2.03;;;;;;;;;;5045731;28;20485;-86
2022/05/23 15:02:10;;;;;;;2.70;1.70;;;;;;;;;;5046349;28;20440;-88
2022/05/23 15:04:39;;;;;;;4.17;2.23;;;;;;;;;;5044774;28;20465;-88
2022/05/23 15:07:07;;;;;;;3.87;2.30;;;;;;;;;;5047895;28;20464;-88
2022/05/23 15:09:34;;;;;;;4.63;2.10;;;;;;;;;;5043092;28;20980;-89
2022/05/23 15:12:02;;;;;;;3.50;2.10;;;;;;;;;;5048424;28;20457;-87
2022/05/23 15:14:32;;;;;;;2.20;2.00;;;;;;;;;;5051473;28;20448;-88
2022/05/23 15:16:59;;;;;;;3.37;1.90;;;;;;;;;;5042862;28;20857;-87
2022/05/23 15:19:26;;;;;;;3.40;1.97;;;;;;;;;;5043489;28;20472;-86
2022/05/23 15:21:54;;;;;;;2.30;2.10;;;;;;;;;;5036072;28;20491;-86
2022/05/23 15:24:21;;;;;;;3.23;2.73;;;;;;;;;;5035375;28;20466;-87
2022/05/23 15:26:48;;;;;;;2.33;2.07;;;;;;;;;;5039529;28;20544;-87
2022/05/23 15:29:18;;;;;;;2.23;1.97;;;;;;;;;;5050758;28;20457;-87
2022/05/23 15:31:50;;;;;;;2.90;2.47;;;;;;;;;;5035821;28;20466;-86
2022/05/23 15:34:17;;;;;;;2.60;2.07;;;;;;;;;;5034171;28;20603;-87
2022/05/23 15:36:44;;;;;;;2.77;2.10;;;;;;;;;;5040361;28;20531;-87
2022/05/23 15:39:12;;;;;;;4.47;2.40;;;;;;;;;;5052087;28;20462;-86
2022/05/23 15:41:41;;;;;;;3.00;2.50;;;;;;;;;;5047487;28;21038;-86
2022/05/23 15:44:10;;;;;;;3.17;2.07;;;;;;;;;;5030735;28;20458;-88
2022/05/23 15:46:41;;;;;;;4.13;2.60;;;;;;;;;;5035850;28;20470;-85
2022/05/23 15:49:08;;;;;;;2.57;2.37;;;;;;;;;;5036143;28;20457;-86
2022/05/23 15:51:35;;;;;;;3.33;2.13;;;;;;;;;;5049826;28;20539;-86
2022/05/23 15:54:02;;;;;;;3.43;2.13;;;;;;;;;;5048131;28;20460;-85
2022/05/23 15:56:29;;;;;;;2.60;2.00;;;;;;;;;;5045963;28;20846;-87
2022/05/23 15:58:56;;;;;;;2.30;2.07;;;;;;;;;;5038933;28;20458;-89
2022/05/23 16:01:23;;;;;;;4.20;2.37;;;;;;;;;;5037218;28;20798;-85
2022/05/23 16:03:52;;;;;;;3.10;2.60;;;;;;;;;;5028497;28;20564;-89
2022/05/23 16:06:19;;;;;;;2.50;2.30;;;;;;;;;;5038691;28;20956;-89
2022/05/23 16:08:50;;;;;;;4.00;2.20;;;;;;;;;;5035386;28;20464;-89
2022/05/23 16:11:20;;;;;;;5.00;2.40;;;;;;;;;;5030949;28;21080;-90